createdAt,value
2022-12-05T00:00:09.085Z,727.30
2022-12-05T00:04:13.731Z,645.83
2022-12-05T00:08:41.462Z,1010.73
2022-12-05T00:12:43.908Z,855.03
2022-12-05T00:16:49.992Z,878.83
2022-12-05T00:20:52.065Z,761.03
2022-12-05T00:24:54.117Z,770.83
2022-12-05T00:29:05.115Z,662.30
2022-12-05T00:33:10.100Z,759.00
2022-12-05T00:37:12.605Z,504.17
2022-12-05T00:41:44.738Z,564.03
2022-12-05T00:46:10.376Z,888.20
2022-12-05T00:50:12.534Z,814.47
2022-12-05T00:54:16.394Z,664.57
2022-12-05T00:58:18.594Z,683.67
2022-12-05T01:02:20.821Z,760.27
2022-12-05T01:06:23.860Z,735.50
2022-12-05T01:10:25.873Z,639.73
2022-12-05T01:15:29.386Z,212.83
2022-12-05T01:25:56.137Z,434.70
2022-12-05T01:31:13.022Z,799.67
2022-12-05T01:35:15.015Z,566.60
2022-12-05T01:39:19.389Z,516.87
2022-12-05T01:43:21.648Z,330.03
2022-12-05T01:47:25.327Z,618.23
2022-12-05T01:51:27.813Z,248.97
2022-12-05T01:55:30.299Z,522.63
2022-12-05T01:59:36.490Z,566.03
2022-12-05T02:03:38.617Z,378.93
2022-12-05T02:07:43.701Z,560.83
2022-12-05T02:12:16.206Z,480.80
2022-12-05T02:16:44.465Z,540.63
2022-12-05T02:21:09.129Z,190.60
2022-12-05T02:25:22.586Z,133.57
2022-12-05T02:29:49.468Z,398.87
2022-12-05T02:34:29.950Z,488.13
2022-12-05T02:38:54.684Z,520.10
2022-12-05T02:43:44.905Z,525.93
2022-12-05T02:47:53.134Z,392.23
2022-12-05T02:51:58.877Z,515.80
2022-12-05T02:56:13.491Z,358.47
2022-12-05T03:00:42.930Z,342.93
2022-12-05T03:04:50.271Z,406.20
2022-12-05T03:09:16.838Z,465.30
2022-12-05T03:13:24.851Z,587.90
2022-12-05T03:17:58.855Z,277.67
2022-12-05T03:22:15.467Z,369.77
2022-12-05T03:26:31.673Z,394.33
2022-12-05T03:31:06.882Z,472.27
2022-12-05T03:35:29.281Z,385.83
2022-12-05T03:39:35.998Z,367.87
2022-12-05T03:43:47.793Z,446.37
2022-12-05T03:48:48.243Z,391.23
2022-12-05T03:53:40.196Z,173.57
2022-12-05T03:58:42.319Z,357.03
2022-12-05T04:03:21.307Z,492.73
2022-12-05T04:07:27.452Z,312.17
2022-12-05T04:11:53.684Z,76.37
2022-12-05T04:16:21.374Z,236.47
2022-12-05T04:20:59.689Z,177.33
2022-12-05T04:30:16.639Z,330.50
2022-12-05T04:34:21.766Z,333.30
2022-12-05T04:38:40.130Z,402.47
2022-12-05T04:42:46.545Z,431.67
2022-12-05T04:46:50.697Z,400.73
2022-12-05T04:50:55.165Z,342.63
2022-12-05T04:55:09.629Z,406.63
2022-12-05T04:59:22.099Z,381.87
2022-12-05T05:03:30.376Z,284.90
2022-12-05T05:07:32.472Z,311.60
2022-12-05T05:11:59.648Z,180.07
2022-12-05T05:16:27.168Z,136.77
2022-12-05T05:20:30.370Z,205.63
2022-12-05T05:24:32.544Z,81.53
2022-12-05T05:28:34.724Z,80.50
2022-12-05T05:32:37.960Z,370.83
2022-12-05T05:48:01.833Z,321.17
2022-12-05T05:52:04.066Z,290.63
2022-12-05T05:56:09.652Z,357.40
2022-12-05T06:00:37.388Z,410.87
2022-12-05T06:04:50.926Z,188.30
2022-12-05T06:08:54.820Z,523.63
2022-12-05T06:12:57.937Z,197.33
2022-12-05T06:16:59.992Z,315.73
2022-12-05T06:27:04.853Z,345.50
2022-12-05T06:31:34.892Z,145.37
2022-12-05T06:35:36.979Z,268.60
2022-12-05T06:39:44.703Z,244.03
2022-12-05T06:44:00.304Z,159.10
2022-12-05T06:48:03.945Z,216.00
2022-12-05T06:52:06.096Z,244.43
2022-12-05T06:56:20.116Z,152.13
2022-12-05T07:00:44.284Z,227.87
2022-12-05T07:05:14.641Z,206.23
2022-12-05T07:09:18.491Z,300.17
2022-12-05T07:13:20.580Z,245.10
2022-12-05T07:17:22.607Z,256.47
2022-12-05T07:21:25.011Z,354.67
2022-12-05T07:25:49.115Z,187.80
2022-12-05T07:30:17.253Z,116.67
2022-12-05T07:34:19.470Z,412.07
2022-12-05T07:38:21.660Z,220.60
2022-12-05T07:42:23.627Z,378.00
2022-12-05T07:46:27.968Z,361.33
2022-12-05T07:51:02.006Z,210.37
2022-12-05T07:55:04.329Z,223.80
2022-12-05T07:59:06.503Z,322.83
2022-12-05T08:03:08.665Z,269.33
2022-12-05T08:07:11.719Z,222.43
2022-12-05T08:11:16.279Z,594.20
2022-12-05T08:15:24.459Z,513.40
2022-12-05T08:19:26.470Z,301.10
2022-12-05T08:23:30.587Z,396.83
2022-12-05T08:27:32.661Z,311.93
2022-12-05T08:31:39.269Z,266.00
2022-12-05T08:35:43.389Z,86.80
2022-12-05T08:40:22.792Z,308.47
2022-12-05T08:44:27.010Z,185.27
2022-12-05T08:48:34.067Z,278.10
2022-12-05T08:52:37.354Z,314.97
2022-12-05T08:56:59.831Z,318.17
2022-12-05T09:01:07.890Z,279.63
2022-12-05T09:05:27.664Z,344.40
2022-12-05T09:09:59.475Z,131.07
2022-12-05T09:14:03.724Z,141.57
2022-12-05T09:18:05.769Z,376.33
2022-12-05T09:22:07.847Z,230.03
2022-12-05T09:26:12.458Z,241.70
2022-12-05T09:30:15.335Z,193.83
2022-12-05T09:34:18.648Z,114.20
2022-12-05T09:38:22.074Z,119.67
2022-12-05T09:42:41.966Z,123.07
2022-12-05T09:46:55.379Z,133.23
2022-12-05T09:51:01.710Z,111.90
2022-12-05T09:55:55.044Z,41.63
2022-12-05T10:00:22.766Z,190.37
2022-12-05T10:05:18.809Z,216.23
2022-12-05T10:09:39.733Z,255.93
2022-12-05T10:14:35.828Z,276.30
2022-12-05T10:18:57.451Z,47.43
2022-12-05T10:23:06.149Z,79.33
2022-12-05T10:27:17.209Z,61.30
2022-12-05T10:31:27.885Z,501.10
2022-12-05T10:35:41.631Z,199.00
2022-12-05T10:39:46.106Z,92.07
2022-12-05T10:44:01.808Z,98.53
2022-12-05T10:48:35.125Z,69.13
2022-12-05T10:52:44.778Z,102.67
2022-12-05T10:57:38.021Z,149.03
2022-12-05T11:02:36.956Z,69.93
2022-12-05T11:07:06.322Z,53.40
2022-12-05T11:11:33.470Z,237.43
2022-12-05T11:15:55.293Z,382.57
2022-12-05T11:20:19.351Z,207.47
2022-12-05T11:25:22.365Z,147.03
2022-12-05T11:29:55.230Z,100.90
2022-12-05T11:34:34.539Z,65.70
2022-12-05T11:39:02.166Z,92.67
2022-12-05T11:43:22.786Z,153.63
2022-12-05T11:48:17.195Z,200.00
2022-12-05T11:53:24.258Z,112.97
2022-12-05T11:58:07.122Z,77.83
2022-12-05T12:02:37.049Z,31.93
2022-12-05T12:07:18.387Z,43.23
2022-12-05T12:17:47.744Z,16.63
2022-12-05T12:21:57.128Z,39.50
2022-12-05T12:26:28.163Z,32.80
2022-12-05T12:30:55.158Z,57.10
2022-12-05T12:35:34.840Z,46.60
2022-12-05T12:40:08.272Z,27.50
2022-12-05T12:44:36.390Z,15.97
2022-12-05T12:49:02.758Z,28.67
2022-12-05T12:53:42.220Z,66.20
2022-12-05T12:57:44.235Z,233.87
2022-12-05T13:02:14.504Z,53.47
2022-12-05T13:07:06.852Z,248.80
2022-12-05T13:11:11.686Z,253.50
2022-12-05T13:16:16.260Z,129.10
2022-12-05T13:20:25.454Z,134.43
2022-12-05T13:24:28.573Z,255.23
2022-12-05T13:28:44.436Z,86.07
2022-12-05T13:32:47.541Z,134.23
2022-12-05T13:37:43.337Z,231.20
2022-12-05T13:46:54.458Z,164.90
2022-12-05T13:51:25.786Z,110.33
2022-12-05T13:55:36.233Z,27.13
2022-12-05T14:00:07.448Z,38.27
2022-12-05T14:04:53.990Z,169.10
2022-12-05T14:09:00.935Z,249.13
2022-12-05T14:13:33.823Z,157.20
2022-12-05T14:17:44.366Z,23.20
2022-12-05T14:22:25.198Z,132.60
2022-12-05T14:27:19.007Z,83.63
2022-12-05T14:32:02.402Z,27.67
2022-12-05T14:36:09.159Z,60.77
2022-12-05T14:40:37.110Z,26.97
2022-12-05T14:44:47.359Z,23.23
2022-12-05T14:48:50.951Z,18.90
2022-12-05T14:53:20.929Z,10.80
2022-12-05T14:57:23.216Z,20.33
2022-12-05T15:01:58.606Z,20.47
2022-12-05T15:06:04.188Z,49.50
2022-12-05T15:10:35.663Z,17.03
2022-12-05T15:14:52.560Z,33.90
2022-12-05T15:18:58.975Z,31.93
2022-12-05T15:24:03.741Z,24.53
2022-12-05T15:28:31.287Z,30.80
2022-12-05T15:33:01.687Z,14.60
2022-12-05T15:41:46.166Z,12.43
2022-12-05T15:46:20.433Z,24.97
2022-12-05T15:50:41.423Z,62.50
2022-12-05T15:54:45.288Z,171.93
2022-12-05T15:59:23.275Z,90.23
2022-12-05T16:03:51.170Z,118.87
2022-12-05T16:08:24.859Z,50.50
2022-12-05T16:12:50.140Z,110.37
2022-12-05T16:17:00.780Z,57.30
2022-12-05T16:21:39.120Z,195.07
2022-12-05T16:25:50.698Z,127.17
2022-12-05T16:30:19.251Z,42.60
2022-12-05T16:34:24.695Z,50.30
2022-12-05T16:38:31.963Z,71.83
2022-12-05T16:42:35.193Z,233.37
2022-12-05T16:46:37.394Z,154.13
2022-12-05T16:50:39.455Z,120.17
2022-12-05T16:54:42.825Z,23.63
2022-12-05T16:58:45.246Z,21.63
2022-12-05T17:03:25.668Z,38.33
2022-12-05T17:07:29.733Z,12.17
2022-12-05T17:11:45.087Z,8.20
2022-12-05T17:15:50.492Z,9.63
2022-12-05T17:19:59.818Z,8.80
2022-12-05T17:24:02.147Z,10.33
2022-12-05T17:28:10.581Z,8.67
2022-12-05T17:32:12.897Z,10.27
2022-12-05T17:36:17.327Z,9.63
2022-12-05T17:46:25.327Z,9.47
2022-12-05T17:50:28.009Z,11.13
2022-12-05T17:54:31.123Z,7.30
2022-12-05T17:58:33.462Z,11.23
2022-12-05T18:02:35.441Z,9.63
2022-12-05T18:06:39.506Z,10.13
2022-12-05T18:10:43.005Z,10.23
2022-12-05T18:15:44.269Z,9.30
2022-12-05T18:20:15.057Z,11.30
2022-12-05T18:24:33.452Z,8.23
2022-12-05T18:28:37.468Z,8.63
2022-12-05T18:33:04.337Z,10.37
2022-12-05T18:37:12.779Z,9.17
2022-12-05T18:41:14.801Z,9.50
2022-12-05T18:45:16.845Z,8.90
2022-12-05T18:49:19.165Z,7.80
2022-12-05T18:53:23.616Z,9.07
2022-12-05T18:57:25.598Z,11.07
2022-12-05T19:01:33.911Z,10.23
2022-12-05T19:05:36.538Z,13.57
2022-12-05T19:10:06.467Z,13.33
2022-12-05T19:14:10.955Z,10.70
2022-12-05T19:18:12.955Z,11.23
2022-12-05T19:22:16.230Z,10.10
2022-12-05T19:26:19.591Z,10.77
2022-12-05T19:30:41.308Z,9.87
2022-12-05T19:34:46.676Z,9.60
2022-12-05T19:39:16.245Z,12.90
2022-12-05T19:43:18.387Z,10.67
2022-12-05T19:47:20.879Z,14.07
2022-12-05T19:51:22.958Z,13.40
2022-12-05T19:55:26.018Z,13.17
2022-12-05T19:59:28.136Z,12.27
2022-12-05T20:03:30.141Z,9.63
2022-12-05T20:07:59.193Z,10.73
2022-12-05T20:12:04.269Z,16.60
2022-12-05T20:16:08.602Z,11.37
2022-12-05T20:20:12.982Z,9.47
2022-12-05T20:24:15.162Z,8.90
2022-12-05T20:28:17.567Z,10.30
2022-12-05T20:32:45.245Z,10.27
2022-12-05T20:36:47.486Z,9.37
2022-12-05T20:40:49.475Z,10.03
2022-12-05T20:45:07.632Z,9.30
2022-12-05T20:49:09.926Z,11.17
2022-12-05T20:53:11.926Z,10.07
2022-12-05T20:57:15.019Z,11.23
2022-12-05T21:01:26.609Z,8.73
2022-12-05T21:06:31.426Z,10.43
2022-12-05T21:17:44.294Z,10.97
2022-12-05T21:22:44.062Z,8.87
2022-12-05T21:32:48.056Z,9.63
2022-12-05T21:37:15.385Z,12.47
2022-12-05T21:41:18.401Z,7.77
2022-12-05T21:46:13.040Z,9.27
2022-12-05T21:50:17.204Z,10.00
2022-12-05T21:54:19.087Z,7.07
2022-12-05T21:58:51.653Z,6.53
2022-12-05T22:02:55.343Z,6.43
2022-12-05T22:07:48.682Z,6.33
2022-12-05T22:12:16.976Z,5.50
2022-12-05T22:16:19.758Z,6.50
2022-12-05T22:20:21.772Z,6.60
2022-12-05T22:24:23.689Z,5.63
2022-12-05T22:28:52.143Z,5.17
2022-12-05T22:32:56.219Z,3.57
2022-12-05T22:37:27.025Z,4.03
2022-12-05T22:41:49.496Z,4.30
2022-12-05T22:45:52.967Z,4.40
2022-12-05T22:49:54.943Z,3.27
2022-12-05T22:53:58.610Z,2.53
2022-12-05T22:58:19.925Z,2.10
2022-12-05T23:02:26.319Z,2.17
2022-12-05T23:06:52.549Z,3.13
2022-12-05T23:11:01.808Z,2.97
2022-12-05T23:15:22.377Z,1.67
2022-12-05T23:19:24.317Z,2.53
2022-12-05T23:23:26.223Z,1.00
2022-12-05T23:27:28.351Z,1.17
2022-12-05T23:32:32.596Z,1.77
2022-12-05T23:42:41.940Z,1.63
2022-12-05T23:46:43.924Z,0.30
2022-12-05T23:51:20.306Z,0.50
2022-12-05T23:55:22.452Z,0.40
2022-12-05T23:59:31.501Z,0.43
